sensor_id;sensor_type;location;lat;lon;timestamp;P1;durP1;ratioP1;P2;durP2;ratioP2
65461;SDS011;53236;43.666;18.444;2023-07-31T05:47:30;11.20;;;8.90;;
65461;SDS011;53236;43.666;18.444;2023-07-31T05:49:56;10.60;;;8.10;;
65461;SDS011;53236;43.666;18.444;2023-07-31T05:52:22;10.80;;;8.35;;
65461;SDS011;53236;43.666;18.444;2023-07-31T05:54:48;16.27;;;8.80;;
65461;SDS011;53236;43.666;18.444;2023-07-31T05:57:13;14.85;;;7.60;;
65461;SDS011;53236;43.666;18.444;2023-07-31T05:59:39;11.20;;;8.50;;
65461;SDS011;53236;43.666;18.444;2023-07-31T06:02:05;10.82;;;8.02;;
65461;SDS011;53236;43.666;18.444;2023-07-31T06:04:31;12.30;;;7.97;;
65461;SDS011;53236;43.666;18.444;2023-07-31T06:06:58;12.65;;;7.68;;
65461;SDS011;53236;43.666;18.444;2023-07-31T06:09:24;10.48;;;7.88;;
65461;SDS011;53236;43.666;18.444;2023-07-31T06:11:51;11.02;;;7.78;;
65461;SDS011;53236;43.666;18.444;2023-07-31T06:14:17;9.75;;;7.82;;
65461;SDS011;53236;43.666;18.444;2023-07-31T06:16:43;14.77;;;8.38;;
65461;SDS011;53236;43.666;18.444;2023-07-31T06:19:09;12.40;;;8.98;;
65461;SDS011;53236;43.666;18.444;2023-07-31T06:21:35;11.48;;;8.15;;
65461;SDS011;53236;43.666;18.444;2023-07-31T06:24:02;11.05;;;8.80;;
65461;SDS011;53236;43.666;18.444;2023-07-31T06:26:29;13.27;;;9.48;;
65461;SDS011;53236;43.666;18.444;2023-07-31T06:28:55;11.52;;;8.98;;
65461;SDS011;53236;43.666;18.444;2023-07-31T06:31:20;11.07;;;9.00;;
65461;SDS011;53236;43.666;18.444;2023-07-31T06:33:50;9.32;;;7.45;;
65461;SDS011;53236;43.666;18.444;2023-07-31T06:36:17;9.55;;;6.53;;
65461;SDS011;53236;43.666;18.444;2023-07-31T06:38:43;11.52;;;6.88;;
65461;SDS011;53236;43.666;18.444;2023-07-31T06:41:09;8.75;;;6.22;;
65461;SDS011;53236;43.666;18.444;2023-07-31T06:43:35;8.05;;;5.65;;
65461;SDS011;53236;43.666;18.444;2023-07-31T06:46:05;6.95;;;5.82;;
65461;SDS011;53236;43.666;18.444;2023-07-31T06:48:35;6.78;;;5.72;;
65461;SDS011;53236;43.666;18.444;2023-07-31T06:51:02;6.55;;;5.35;;
65461;SDS011;53236;43.666;18.444;2023-07-31T06:53:28;8.98;;;5.45;;
65461;SDS011;53236;43.666;18.444;2023-07-31T06:55:54;5.07;;;4.43;;
65461;SDS011;53236;43.666;18.444;2023-07-31T06:58:20;6.07;;;4.28;;
65461;SDS011;53236;43.666;18.444;2023-07-31T07:00:46;4.82;;;4.05;;
65461;SDS011;53236;43.666;18.444;2023-07-31T07:03:14;4.35;;;3.88;;
65461;SDS011;53236;43.666;18.444;2023-07-31T07:05:40;5.80;;;4.32;;
65461;SDS011;53236;43.666;18.444;2023-07-31T07:08:06;5.18;;;4.65;;
65461;SDS011;53236;43.666;18.444;2023-07-31T07:10:31;6.13;;;3.90;;
65461;SDS011;53236;43.666;18.444;2023-07-31T07:12:57;5.03;;;4.20;;
65461;SDS011;53236;43.666;18.444;2023-07-31T07:15:23;6.47;;;4.38;;
65461;SDS011;53236;43.666;18.444;2023-07-31T07:17:48;5.47;;;3.83;;
65461;SDS011;53236;43.666;18.444;2023-07-31T07:20:14;5.00;;;3.80;;
65461;SDS011;53236;43.666;18.444;2023-07-31T07:22:40;4.75;;;4.07;;
65461;SDS011;53236;43.666;18.444;2023-07-31T07:25:08;5.72;;;4.47;;
65461;SDS011;53236;43.666;18.444;2023-07-31T07:27:34;8.73;;;5.43;;
65461;SDS011;53236;43.666;18.444;2023-07-31T07:30:00;7.40;;;5.05;;
65461;SDS011;53236;43.666;18.444;2023-07-31T07:32:26;5.97;;;4.80;;
65461;SDS011;53236;43.666;18.444;2023-07-31T07:34:51;5.38;;;4.30;;
65461;SDS011;53236;43.666;18.444;2023-07-31T07:37:17;7.50;;;4.75;;
65461;SDS011;53236;43.666;18.444;2023-07-31T07:39:43;5.40;;;4.43;;
65461;SDS011;53236;43.666;18.444;2023-07-31T07:42:09;5.13;;;4.13;;
65461;SDS011;53236;43.666;18.444;2023-07-31T07:44:35;5.68;;;4.25;;
65461;SDS011;53236;43.666;18.444;2023-07-31T07:47:00;6.15;;;5.30;;
65461;SDS011;53236;43.666;18.444;2023-07-31T07:49:26;5.22;;;4.53;;
65461;SDS011;53236;43.666;18.444;2023-07-31T07:51:52;5.70;;;4.50;;
65461;SDS011;53236;43.666;18.444;2023-07-31T07:54:17;7.63;;;5.03;;
65461;SDS011;53236;43.666;18.444;2023-07-31T07:56:45;8.60;;;5.15;;
65461;SDS011;53236;43.666;18.444;2023-07-31T07:59:12;8.82;;;4.70;;
65461;SDS011;53236;43.666;18.444;2023-07-31T08:01:37;6.50;;;5.05;;
65461;SDS011;53236;43.666;18.444;2023-07-31T08:04:03;6.70;;;4.90;;
65461;SDS011;53236;43.666;18.444;2023-07-31T08:06:29;8.05;;;4.80;;
65461;SDS011;53236;43.666;18.444;2023-07-31T08:08:55;5.40;;;4.07;;
65461;SDS011;53236;43.666;18.444;2023-07-31T08:11:21;4.22;;;3.63;;
65461;SDS011;53236;43.666;18.444;2023-07-31T08:13:48;5.18;;;3.60;;
65461;SDS011;53236;43.666;18.444;2023-07-31T08:16:14;5.05;;;3.55;;
65461;SDS011;53236;43.666;18.444;2023-07-31T08:18:40;4.72;;;3.30;;
65461;SDS011;53236;43.666;18.444;2023-07-31T08:21:07;4.88;;;3.58;;
65461;SDS011;53236;43.666;18.444;2023-07-31T08:23:33;5.13;;;3.92;;
65461;SDS011;53236;43.666;18.444;2023-07-31T08:25:59;4.95;;;3.92;;
65461;SDS011;53236;43.666;18.444;2023-07-31T08:28:25;5.25;;;4.15;;
65461;SDS011;53236;43.666;18.444;2023-07-31T08:30:51;5.72;;;4.22;;
65461;SDS011;53236;43.666;18.444;2023-07-31T08:33:16;6.85;;;4.65;;
65461;SDS011;53236;43.666;18.444;2023-07-31T08:35:42;6.40;;;3.95;;
65461;SDS011;53236;43.666;18.444;2023-07-31T08:38:08;6.00;;;4.03;;
65461;SDS011;53236;43.666;18.444;2023-07-31T08:40:36;5.03;;;4.00;;
65461;SDS011;53236;43.666;18.444;2023-07-31T08:43:03;5.25;;;4.05;;
65461;SDS011;53236;43.666;18.444;2023-07-31T08:45:29;5.65;;;3.80;;
65461;SDS011;53236;43.666;18.444;2023-07-31T08:47:56;7.07;;;3.47;;
65461;SDS011;53236;43.666;18.444;2023-07-31T08:50:22;4.95;;;4.07;;
65461;SDS011;53236;43.666;18.444;2023-07-31T08:52:49;6.38;;;4.55;;
65461;SDS011;53236;43.666;18.444;2023-07-31T08:55:17;6.85;;;4.15;;
65461;SDS011;53236;43.666;18.444;2023-07-31T08:57:51;5.90;;;3.00;;
65461;SDS011;53236;43.666;18.444;2023-07-31T09:00:20;3.40;;;2.65;;
65461;SDS011;53236;43.666;18.444;2023-07-31T09:03:08;6.50;;;4.43;;
65461;SDS011;53236;43.666;18.444;2023-07-31T09:05:37;10.60;;;4.55;;
65461;SDS011;53236;43.666;18.444;2023-07-31T09:08:06;7.22;;;4.40;;
65461;SDS011;53236;43.666;18.444;2023-07-31T09:10:34;5.10;;;4.18;;
65461;SDS011;53236;43.666;18.444;2023-07-31T09:13:00;7.97;;;3.92;;
65461;SDS011;53236;43.666;18.444;2023-07-31T09:15:27;5.38;;;3.55;;
65461;SDS011;53236;43.666;18.444;2023-07-31T09:18:00;5.85;;;4.03;;
65461;SDS011;53236;43.666;18.444;2023-07-31T09:20:26;4.78;;;3.50;;
65461;SDS011;53236;43.666;18.444;2023-07-31T09:22:52;4.65;;;3.58;;
65461;SDS011;53236;43.666;18.444;2023-07-31T09:25:21;4.88;;;3.35;;
65461;SDS011;53236;43.666;18.444;2023-07-31T09:27:54;4.65;;;3.10;;
65461;SDS011;53236;43.666;18.444;2023-07-31T09:30:22;4.43;;;3.25;;
65461;SDS011;53236;43.666;18.444;2023-07-31T09:32:49;4.15;;;3.15;;
65461;SDS011;53236;43.666;18.444;2023-07-31T09:35:19;3.95;;;2.75;;
65461;SDS011;53236;43.666;18.444;2023-07-31T09:37:52;3.88;;;2.67;;
65461;SDS011;53236;43.666;18.444;2023-07-31T09:40:29;5.85;;;3.03;;
65461;SDS011;53236;43.666;18.444;2023-07-31T09:43:03;7.63;;;3.00;;
65461;SDS011;53236;43.666;18.444;2023-07-31T09:45:33;4.10;;;3.10;;
65461;SDS011;53236;43.666;18.444;2023-07-31T09:48:04;4.85;;;3.00;;
65461;SDS011;53236;43.666;18.444;2023-07-31T09:50:34;5.00;;;2.72;;
65461;SDS011;53236;43.666;18.444;2023-07-31T09:53:05;5.13;;;3.38;;
65461;SDS011;53236;43.666;18.444;2023-07-31T09:55:32;5.25;;;2.88;;
65461;SDS011;53236;43.666;18.444;2023-07-31T09:57:58;5.47;;;2.95;;
65461;SDS011;53236;43.666;18.444;2023-07-31T10:00:28;4.88;;;2.70;;
65461;SDS011;53236;43.666;18.444;2023-07-31T10:02:55;4.53;;;3.03;;
65461;SDS011;53236;43.666;18.444;2023-07-31T10:05:24;4.30;;;2.58;;
65461;SDS011;53236;43.666;18.444;2023-07-31T10:07:58;3.67;;;2.45;;
65461;SDS011;53236;43.666;18.444;2023-07-31T10:10:25;6.25;;;3.63;;
65461;SDS011;53236;43.666;18.444;2023-07-31T10:12:52;6.78;;;3.67;;
65461;SDS011;53236;43.666;18.444;2023-07-31T10:15:19;8.05;;;3.80;;
65461;SDS011;53236;43.666;18.444;2023-07-31T10:17:48;7.50;;;3.80;;
65461;SDS011;53236;43.666;18.444;2023-07-31T10:20:15;8.38;;;3.70;;
65461;SDS011;53236;43.666;18.444;2023-07-31T10:22:45;6.03;;;4.07;;
65461;SDS011;53236;43.666;18.444;2023-07-31T10:25:11;7.03;;;3.97;;
65461;SDS011;53236;43.666;18.444;2023-07-31T10:27:38;6.95;;;4.00;;
65461;SDS011;53236;43.666;18.444;2023-07-31T10:30:04;4.72;;;3.88;;
65461;SDS011;53236;43.666;18.444;2023-07-31T10:32:32;5.82;;;4.50;;
65461;SDS011;53236;43.666;18.444;2023-07-31T10:34:59;6.10;;;4.30;;
65461;SDS011;53236;43.666;18.444;2023-07-31T10:37:29;6.07;;;3.95;;
65461;SDS011;53236;43.666;18.444;2023-07-31T10:40:02;4.55;;;3.08;;
65461;SDS011;53236;43.666;18.444;2023-07-31T10:42:48;7.38;;;3.85;;
65461;SDS011;53236;43.666;18.444;2023-07-31T10:47:59;3.95;;;3.00;;
65461;SDS011;53236;43.666;18.444;2023-07-31T10:50:26;3.67;;;2.55;;
65461;SDS011;53236;43.666;18.444;2023-07-31T10:52:54;2.83;;;2.00;;
65461;SDS011;53236;43.666;18.444;2023-07-31T10:57:49;5.43;;;2.60;;
65461;SDS011;53236;43.666;18.444;2023-07-31T11:00:26;4.18;;;2.33;;
65461;SDS011;53236;43.666;18.444;2023-07-31T11:10:42;4.30;;;2.15;;
65461;SDS011;53236;43.666;18.444;2023-07-31T11:13:11;2.40;;;1.60;;
65461;SDS011;53236;43.666;18.444;2023-07-31T11:15:37;3.60;;;1.63;;
65461;SDS011;53236;43.666;18.444;2023-07-31T11:18:03;2.38;;;1.67;;
65461;SDS011;53236;43.666;18.444;2023-07-31T11:20:31;2.50;;;1.90;;
65461;SDS011;53236;43.666;18.444;2023-07-31T11:23:07;3.75;;;1.92;;
65461;SDS011;53236;43.666;18.444;2023-07-31T11:25:34;4.00;;;2.08;;
65461;SDS011;53236;43.666;18.444;2023-07-31T11:28:04;4.53;;;2.35;;
65461;SDS011;53236;43.666;18.444;2023-07-31T11:30:39;3.05;;;1.90;;
65461;SDS011;53236;43.666;18.444;2023-07-31T11:33:06;3.30;;;2.20;;
65461;SDS011;53236;43.666;18.444;2023-07-31T11:35:46;3.28;;;2.33;;
65461;SDS011;53236;43.666;18.444;2023-07-31T11:38:30;3.92;;;2.70;;
65461;SDS011;53236;43.666;18.444;2023-07-31T11:40:58;6.18;;;2.92;;
65461;SDS011;53236;43.666;18.444;2023-07-31T11:43:25;5.18;;;2.65;;
65461;SDS011;53236;43.666;18.444;2023-07-31T11:45:52;4.22;;;2.90;;
65461;SDS011;53236;43.666;18.444;2023-07-31T11:48:25;3.53;;;2.60;;
65461;SDS011;53236;43.666;18.444;2023-07-31T11:50:53;3.83;;;2.28;;
65461;SDS011;53236;43.666;18.444;2023-07-31T11:53:25;4.05;;;2.50;;
65461;SDS011;53236;43.666;18.444;2023-07-31T11:56:03;3.15;;;2.20;;
65461;SDS011;53236;43.666;18.444;2023-07-31T11:58:34;3.33;;;2.47;;
65461;SDS011;53236;43.666;18.444;2023-07-31T12:01:01;3.65;;;2.35;;
65461;SDS011;53236;43.666;18.444;2023-07-31T12:03:27;3.10;;;2.15;;
65461;SDS011;53236;43.666;18.444;2023-07-31T12:05:54;3.22;;;2.33;;
65461;SDS011;53236;43.666;18.444;2023-07-31T12:08:23;3.00;;;2.20;;
65461;SDS011;53236;43.666;18.444;2023-07-31T12:10:52;2.97;;;2.00;;
65461;SDS011;53236;43.666;18.444;2023-07-31T12:13:22;4.47;;;2.33;;
65461;SDS011;53236;43.666;18.444;2023-07-31T12:15:53;3.10;;;2.20;;
65461;SDS011;53236;43.666;18.444;2023-07-31T12:18:23;3.30;;;2.33;;
65461;SDS011;53236;43.666;18.444;2023-07-31T12:21:08;3.63;;;2.28;;
65461;SDS011;53236;43.666;18.444;2023-07-31T12:23:37;3.55;;;2.28;;
65461;SDS011;53236;43.666;18.444;2023-07-31T12:26:06;4.55;;;2.30;;
65461;SDS011;53236;43.666;18.444;2023-07-31T12:28:44;4.50;;;2.50;;
65461;SDS011;53236;43.666;18.444;2023-07-31T12:33:44;2.72;;;2.03;;
65461;SDS011;53236;43.666;18.444;2023-07-31T12:36:12;4.75;;;2.55;;
65461;SDS011;53236;43.666;18.444;2023-07-31T12:38:39;5.18;;;2.53;;
65461;SDS011;53236;43.666;18.444;2023-07-31T12:41:06;4.55;;;2.17;;
65461;SDS011;53236;43.666;18.444;2023-07-31T12:43:32;3.58;;;2.30;;
65461;SDS011;53236;43.666;18.444;2023-07-31T12:46:02;6.88;;;2.30;;
65461;SDS011;53236;43.666;18.444;2023-07-31T12:48:28;3.17;;;2.25;;
65461;SDS011;53236;43.666;18.444;2023-07-31T12:50:54;8.98;;;2.50;;
65461;SDS011;53236;43.666;18.444;2023-07-31T12:53:19;6.65;;;2.20;;
65461;SDS011;53236;43.666;18.444;2023-07-31T12:55:45;7.78;;;2.33;;
65461;SDS011;53236;43.666;18.444;2023-07-31T12:58:11;3.92;;;2.50;;
65461;SDS011;53236;43.666;18.444;2023-07-31T13:00:37;3.47;;;2.10;;
65461;SDS011;53236;43.666;18.444;2023-07-31T13:03:03;6.22;;;2.15;;
65461;SDS011;53236;43.666;18.444;2023-07-31T13:05:29;6.03;;;2.47;;
65461;SDS011;53236;43.666;18.444;2023-07-31T13:07:55;4.93;;;2.50;;
65461;SDS011;53236;43.666;18.444;2023-07-31T13:10:21;6.80;;;2.50;;
65461;SDS011;53236;43.666;18.444;2023-07-31T13:12:48;3.53;;;2.35;;
65461;SDS011;53236;43.666;18.444;2023-07-31T13:15:14;3.17;;;2.50;;
65461;SDS011;53236;43.666;18.444;2023-07-31T13:17:40;4.55;;;2.47;;
65461;SDS011;53236;43.666;18.444;2023-07-31T13:20:06;4.57;;;2.47;;
65461;SDS011;53236;43.666;18.444;2023-07-31T13:22:32;3.50;;;2.40;;
65461;SDS011;53236;43.666;18.444;2023-07-31T13:24:58;3.85;;;2.58;;
65461;SDS011;53236;43.666;18.444;2023-07-31T13:27:24;5.63;;;2.88;;
65461;SDS011;53236;43.666;18.444;2023-07-31T13:29:50;4.30;;;2.47;;
65461;SDS011;53236;43.666;18.444;2023-07-31T13:32:16;4.60;;;2.50;;
65461;SDS011;53236;43.666;18.444;2023-07-31T13:34:43;3.65;;;2.80;;
65461;SDS011;53236;43.666;18.444;2023-07-31T13:37:09;5.15;;;2.55;;
65461;SDS011;53236;43.666;18.444;2023-07-31T13:39:35;4.57;;;2.67;;
65461;SDS011;53236;43.666;18.444;2023-07-31T13:42:04;4.40;;;2.40;;
65461;SDS011;53236;43.666;18.444;2023-07-31T13:44:33;6.68;;;2.75;;
65461;SDS011;53236;43.666;18.444;2023-07-31T13:47:02;3.35;;;2.40;;
65461;SDS011;53236;43.666;18.444;2023-07-31T13:49:28;3.67;;;2.25;;
65461;SDS011;53236;43.666;18.444;2023-07-31T13:51:55;3.63;;;2.72;;
65461;SDS011;53236;43.666;18.444;2023-07-31T13:54:21;3.25;;;2.20;;
65461;SDS011;53236;43.666;18.444;2023-07-31T13:56:48;3.63;;;2.67;;
65461;SDS011;53236;43.666;18.444;2023-07-31T13:59:13;3.28;;;2.17;;
65461;SDS011;53236;43.666;18.444;2023-07-31T14:01:41;3.00;;;2.20;;
65461;SDS011;53236;43.666;18.444;2023-07-31T14:04:08;3.67;;;2.30;;
65461;SDS011;53236;43.666;18.444;2023-07-31T14:06:33;4.32;;;2.20;;
65461;SDS011;53236;43.666;18.444;2023-07-31T14:08:59;5.25;;;2.28;;
65461;SDS011;53236;43.666;18.444;2023-07-31T14:11:25;3.28;;;2.05;;
65461;SDS011;53236;43.666;18.444;2023-07-31T14:13:51;3.85;;;2.38;;
65461;SDS011;53236;43.666;18.444;2023-07-31T14:16:17;5.63;;;2.28;;
65461;SDS011;53236;43.666;18.444;2023-07-31T14:18:43;3.78;;;1.98;;
65461;SDS011;53236;43.666;18.444;2023-07-31T14:21:10;3.28;;;2.03;;
65461;SDS011;53236;43.666;18.444;2023-07-31T14:23:37;4.03;;;2.40;;
65461;SDS011;53236;43.666;18.444;2023-07-31T14:26:02;4.32;;;2.20;;
65461;SDS011;53236;43.666;18.444;2023-07-31T14:28:28;3.33;;;1.98;;
65461;SDS011;53236;43.666;18.444;2023-07-31T14:30:54;5.00;;;2.10;;
65461;SDS011;53236;43.666;18.444;2023-07-31T14:33:19;2.80;;;1.90;;
65461;SDS011;53236;43.666;18.444;2023-07-31T14:35:45;3.40;;;2.00;;
65461;SDS011;53236;43.666;18.444;2023-07-31T14:38:11;3.78;;;2.00;;
65461;SDS011;53236;43.666;18.444;2023-07-31T14:40:37;3.78;;;2.25;;
65461;SDS011;53236;43.666;18.444;2023-07-31T14:43:03;3.40;;;1.92;;
65461;SDS011;53236;43.666;18.444;2023-07-31T14:45:29;3.20;;;1.98;;
65461;SDS011;53236;43.666;18.444;2023-07-31T14:47:55;4.07;;;2.20;;
65461;SDS011;53236;43.666;18.444;2023-07-31T14:50:21;3.30;;;2.13;;
65461;SDS011;53236;43.666;18.444;2023-07-31T14:52:48;4.75;;;2.35;;
65461;SDS011;53236;43.666;18.444;2023-07-31T14:55:14;4.07;;;2.10;;
65461;SDS011;53236;43.666;18.444;2023-07-31T14:57:40;7.32;;;2.60;;
65461;SDS011;53236;43.666;18.444;2023-07-31T15:00:06;4.70;;;2.17;;
65461;SDS011;53236;43.666;18.444;2023-07-31T15:02:35;3.88;;;2.10;;
65461;SDS011;53236;43.666;18.444;2023-07-31T15:05:02;5.05;;;2.33;;
65461;SDS011;53236;43.666;18.444;2023-07-31T15:07:28;6.10;;;2.72;;
65461;SDS011;53236;43.666;18.444;2023-07-31T15:09:53;4.38;;;2.60;;
65461;SDS011;53236;43.666;18.444;2023-07-31T15:12:19;6.70;;;2.60;;
65461;SDS011;53236;43.666;18.444;2023-07-31T15:14:45;4.32;;;2.67;;
65461;SDS011;53236;43.666;18.444;2023-07-31T15:17:11;4.10;;;2.10;;
65461;SDS011;53236;43.666;18.444;2023-07-31T15:19:36;4.18;;;2.60;;
65461;SDS011;53236;43.666;18.444;2023-07-31T15:22:05;4.70;;;2.20;;
65461;SDS011;53236;43.666;18.444;2023-07-31T15:24:31;4.20;;;2.40;;
65461;SDS011;53236;43.666;18.444;2023-07-31T15:26:57;3.90;;;2.40;;
65461;SDS011;53236;43.666;18.444;2023-07-31T15:29:23;4.50;;;2.30;;
65461;SDS011;53236;43.666;18.444;2023-07-31T15:31:48;3.78;;;2.20;;
65461;SDS011;53236;43.666;18.444;2023-07-31T15:34:14;3.53;;;2.08;;
65461;SDS011;53236;43.666;18.444;2023-07-31T15:36:41;5.50;;;2.30;;
65461;SDS011;53236;43.666;18.444;2023-07-31T15:39:06;4.95;;;2.53;;
65461;SDS011;53236;43.666;18.444;2023-07-31T15:41:36;2.60;;;1.88;;
65461;SDS011;53236;43.666;18.444;2023-07-31T15:44:03;4.32;;;2.30;;
65461;SDS011;53236;43.666;18.444;2023-07-31T15:46:29;5.65;;;2.40;;
65461;SDS011;53236;43.666;18.444;2023-07-31T15:48:55;3.83;;;2.42;;
65461;SDS011;53236;43.666;18.444;2023-07-31T15:51:20;5.43;;;2.53;;
65461;SDS011;53236;43.666;18.444;2023-07-31T15:53:47;4.88;;;2.05;;
65461;SDS011;53236;43.666;18.444;2023-07-31T15:56:13;3.50;;;2.50;;
65461;SDS011;53236;43.666;18.444;2023-07-31T15:58:38;3.92;;;2.40;;
65461;SDS011;53236;43.666;18.444;2023-07-31T16:01:04;4.38;;;2.63;;
65461;SDS011;53236;43.666;18.444;2023-07-31T16:03:30;5.40;;;3.10;;
65461;SDS011;53236;43.666;18.444;2023-07-31T16:05:56;7.38;;;3.40;;
65461;SDS011;53236;43.666;18.444;2023-07-31T16:08:21;6.05;;;3.78;;
65461;SDS011;53236;43.666;18.444;2023-07-31T16:10:48;10.00;;;5.10;;
65461;SDS011;53236;43.666;18.444;2023-07-31T16:13:14;12.68;;;7.15;;
65461;SDS011;53236;43.666;18.444;2023-07-31T16:15:40;18.15;;;8.60;;
65461;SDS011;53236;43.666;18.444;2023-07-31T16:18:05;28.17;;;14.10;;
65461;SDS011;53236;43.666;18.444;2023-07-31T16:20:31;38.10;;;19.55;;
65461;SDS011;53236;43.666;18.444;2023-07-31T16:22:57;31.80;;;16.67;;
65461;SDS011;53236;43.666;18.444;2023-07-31T16:25:23;40.33;;;20.02;;
65461;SDS011;53236;43.666;18.444;2023-07-31T16:27:49;39.40;;;19.92;;
65461;SDS011;53236;43.666;18.444;2023-07-31T16:30:15;41.30;;;18.05;;
65461;SDS011;53236;43.666;18.444;2023-07-31T16:32:40;35.67;;;16.77;;
65461;SDS011;53236;43.666;18.444;2023-07-31T16:35:06;32.63;;;13.50;;
65461;SDS011;53236;43.666;18.444;2023-07-31T16:37:32;23.85;;;11.98;;
65461;SDS011;53236;43.666;18.444;2023-07-31T16:39:58;18.88;;;8.90;;
65461;SDS011;53236;43.666;18.444;2023-07-31T16:42:24;13.93;;;7.20;;
65461;SDS011;53236;43.666;18.444;2023-07-31T16:44:49;10.18;;;5.50;;
65461;SDS011;53236;43.666;18.444;2023-07-31T16:47:15;10.40;;;5.07;;
65461;SDS011;53236;43.666;18.444;2023-07-31T16:49:41;8.18;;;4.05;;
65461;SDS011;53236;43.666;18.444;2023-07-31T16:52:07;6.97;;;4.20;;
65461;SDS011;53236;43.666;18.444;2023-07-31T16:54:33;8.25;;;3.78;;
65461;SDS011;53236;43.666;18.444;2023-07-31T16:57:00;8.88;;;4.35;;
65461;SDS011;53236;43.666;18.444;2023-07-31T16:59:26;5.72;;;3.45;;
65461;SDS011;53236;43.666;18.444;2023-07-31T17:01:52;5.68;;;3.72;;
65461;SDS011;53236;43.666;18.444;2023-07-31T17:04:18;5.28;;;3.15;;
65461;SDS011;53236;43.666;18.444;2023-07-31T17:06:44;4.72;;;3.08;;
65461;SDS011;53236;43.666;18.444;2023-07-31T17:09:10;6.97;;;3.35;;
65461;SDS011;53236;43.666;18.444;2023-07-31T17:11:36;5.95;;;3.15;;
65461;SDS011;53236;43.666;18.444;2023-07-31T17:14:02;10.10;;;3.55;;
65461;SDS011;53236;43.666;18.444;2023-07-31T17:16:31;6.18;;;3.45;;
65461;SDS011;53236;43.666;18.444;2023-07-31T17:18:59;6.28;;;3.58;;
65461;SDS011;53236;43.666;18.444;2023-07-31T17:21:28;8.23;;;3.70;;
65461;SDS011;53236;43.666;18.444;2023-07-31T17:23:54;8.05;;;3.83;;
65461;SDS011;53236;43.666;18.444;2023-07-31T17:26:22;8.13;;;4.28;;
65461;SDS011;53236;43.666;18.444;2023-07-31T17:28:49;7.57;;;4.35;;
65461;SDS011;53236;43.666;18.444;2023-07-31T17:31:14;7.80;;;4.53;;
65461;SDS011;53236;43.666;18.444;2023-07-31T17:33:40;8.20;;;4.45;;
65461;SDS011;53236;43.666;18.444;2023-07-31T17:36:06;8.27;;;5.05;;
65461;SDS011;53236;43.666;18.444;2023-07-31T17:38:32;10.25;;;5.65;;
65461;SDS011;53236;43.666;18.444;2023-07-31T17:40:58;14.48;;;6.18;;
65461;SDS011;53236;43.666;18.444;2023-07-31T17:43:24;13.77;;;6.45;;
65461;SDS011;53236;43.666;18.444;2023-07-31T17:45:50;11.80;;;6.22;;
65461;SDS011;53236;43.666;18.444;2023-07-31T17:48:16;8.75;;;5.55;;
65461;SDS011;53236;43.666;18.444;2023-07-31T17:50:42;6.85;;;4.32;;
65461;SDS011;53236;43.666;18.444;2023-07-31T17:53:08;8.07;;;4.20;;
65461;SDS011;53236;43.666;18.444;2023-07-31T17:55:34;10.25;;;4.43;;
65461;SDS011;53236;43.666;18.444;2023-07-31T17:58:00;6.18;;;4.03;;
65461;SDS011;53236;43.666;18.444;2023-07-31T18:00:25;5.93;;;4.15;;
65461;SDS011;53236;43.666;18.444;2023-07-31T18:02:51;9.27;;;4.32;;
65461;SDS011;53236;43.666;18.444;2023-07-31T18:05:17;9.15;;;4.07;;
65461;SDS011;53236;43.666;18.444;2023-07-31T18:07:43;8.73;;;4.55;;
65461;SDS011;53236;43.666;18.444;2023-07-31T18:10:08;8.35;;;4.30;;
65461;SDS011;53236;43.666;18.444;2023-07-31T18:12:36;8.15;;;4.53;;
65461;SDS011;53236;43.666;18.444;2023-07-31T18:15:02;8.52;;;4.35;;
65461;SDS011;53236;43.666;18.444;2023-07-31T18:17:29;8.70;;;4.43;;
65461;SDS011;53236;43.666;18.444;2023-07-31T18:19:54;7.55;;;3.90;;
65461;SDS011;53236;43.666;18.444;2023-07-31T18:22:20;9.75;;;4.60;;
65461;SDS011;53236;43.666;18.444;2023-07-31T18:24:46;7.30;;;4.40;;
65461;SDS011;53236;43.666;18.444;2023-07-31T18:27:12;7.50;;;4.50;;
65461;SDS011;53236;43.666;18.444;2023-07-31T18:29:43;9.35;;;4.65;;
65461;SDS011;53236;43.666;18.444;2023-07-31T18:32:09;10.45;;;5.22;;
65461;SDS011;53236;43.666;18.444;2023-07-31T18:34:35;12.02;;;5.25;;
65461;SDS011;53236;43.666;18.444;2023-07-31T18:37:00;11.15;;;6.15;;
65461;SDS011;53236;43.666;18.444;2023-07-31T18:39:28;9.48;;;5.53;;
65461;SDS011;53236;43.666;18.444;2023-07-31T18:41:54;11.18;;;5.05;;
65461;SDS011;53236;43.666;18.444;2023-07-31T18:44:20;12.02;;;5.90;;
65461;SDS011;53236;43.666;18.444;2023-07-31T18:46:46;9.32;;;5.13;;
65461;SDS011;53236;43.666;18.444;2023-07-31T18:49:12;7.53;;;5.05;;
65461;SDS011;53236;43.666;18.444;2023-07-31T18:51:37;9.05;;;5.13;;
65461;SDS011;53236;43.666;18.444;2023-07-31T18:54:06;10.25;;;5.30;;
65461;SDS011;53236;43.666;18.444;2023-07-31T18:56:32;11.40;;;5.28;;
65461;SDS011;53236;43.666;18.444;2023-07-31T18:58:58;7.70;;;4.93;;
65461;SDS011;53236;43.666;18.444;2023-07-31T19:01:25;10.52;;;5.65;;
65461;SDS011;53236;43.666;18.444;2023-07-31T19:03:51;10.15;;;4.80;;
65461;SDS011;53236;43.666;18.444;2023-07-31T19:06:17;7.65;;;4.95;;
65461;SDS011;53236;43.666;18.444;2023-07-31T19:08:44;9.50;;;5.40;;
65461;SDS011;53236;43.666;18.444;2023-07-31T19:11:09;7.65;;;4.75;;
65461;SDS011;53236;43.666;18.444;2023-07-31T19:13:39;7.53;;;4.85;;
65461;SDS011;53236;43.666;18.444;2023-07-31T19:16:05;11.15;;;5.45;;
65461;SDS011;53236;43.666;18.444;2023-07-31T19:18:31;9.23;;;5.45;;
65461;SDS011;53236;43.666;18.444;2023-07-31T19:20:57;9.15;;;4.80;;
65461;SDS011;53236;43.666;18.444;2023-07-31T19:23:23;9.18;;;4.80;;
65461;SDS011;53236;43.666;18.444;2023-07-31T19:25:49;10.45;;;5.25;;
65461;SDS011;53236;43.666;18.444;2023-07-31T19:28:14;8.82;;;5.25;;
65461;SDS011;53236;43.666;18.444;2023-07-31T19:30:40;7.00;;;4.75;;
65461;SDS011;53236;43.666;18.444;2023-07-31T19:33:06;8.27;;;4.68;;
65461;SDS011;53236;43.666;18.444;2023-07-31T19:35:32;9.82;;;6.25;;
65461;SDS011;53236;43.666;18.444;2023-07-31T19:37:58;10.40;;;6.40;;
65461;SDS011;53236;43.666;18.444;2023-07-31T19:40:24;9.07;;;6.32;;
65461;SDS011;53236;43.666;18.444;2023-07-31T19:42:51;8.32;;;6.60;;
65461;SDS011;53236;43.666;18.444;2023-07-31T19:45:19;9.95;;;6.30;;
65461;SDS011;53236;43.666;18.444;2023-07-31T19:47:45;9.75;;;6.07;;
65461;SDS011;53236;43.666;18.444;2023-07-31T19:50:11;12.93;;;6.95;;
65461;SDS011;53236;43.666;18.444;2023-07-31T19:52:37;9.88;;;5.85;;
65461;SDS011;53236;43.666;18.444;2023-07-31T19:55:03;11.07;;;6.28;;
65461;SDS011;53236;43.666;18.444;2023-07-31T19:57:29;7.93;;;5.88;;
65461;SDS011;53236;43.666;18.444;2023-07-31T19:59:54;11.75;;;6.32;;
65461;SDS011;53236;43.666;18.444;2023-07-31T20:02:20;8.93;;;6.68;;
65461;SDS011;53236;43.666;18.444;2023-07-31T20:04:46;10.50;;;7.43;;
65461;SDS011;53236;43.666;18.444;2023-07-31T20:07:11;11.27;;;6.93;;
65461;SDS011;53236;43.666;18.444;2023-07-31T20:09:37;13.80;;;6.57;;
65461;SDS011;53236;43.666;18.444;2023-07-31T20:12:03;13.20;;;6.77;;
65461;SDS011;53236;43.666;18.444;2023-07-31T20:14:29;11.03;;;7.00;;
65461;SDS011;53236;43.666;18.444;2023-07-31T20:16:55;9.65;;;6.78;;
65461;SDS011;53236;43.666;18.444;2023-07-31T20:19:20;11.93;;;6.97;;
65461;SDS011;53236;43.666;18.444;2023-07-31T20:21:46;10.75;;;6.38;;
65461;SDS011;53236;43.666;18.444;2023-07-31T20:24:12;11.67;;;6.40;;
65461;SDS011;53236;43.666;18.444;2023-07-31T20:26:38;11.43;;;6.93;;
65461;SDS011;53236;43.666;18.444;2023-07-31T20:29:04;11.57;;;7.00;;
65461;SDS011;53236;43.666;18.444;2023-07-31T20:31:29;13.68;;;7.32;;